sensor_id;sensor_type;location;lat;lon;timestamp;temperature;humidity
19342;DHT22;9807;48.258;12.690;2022-10-16T00:00:36;16.40;99.90
19342;DHT22;9807;48.258;12.690;2022-10-16T00:03:02;16.40;99.90
19342;DHT22;9807;48.258;12.690;2022-10-16T00:05:28;16.40;99.90
19342;DHT22;9807;48.258;12.690;2022-10-16T00:07:54;16.40;99.90
19342;DHT22;9807;48.258;12.690;2022-10-16T00:10:23;16.40;99.90
19342;DHT22;9807;48.258;12.690;2022-10-16T00:12:48;16.40;99.90
19342;DHT22;9807;48.258;12.690;2022-10-16T00:15:15;16.40;99.90
19342;DHT22;9807;48.258;12.690;2022-10-16T00:17:40;16.50;99.90
19342;DHT22;9807;48.258;12.690;2022-10-16T00:20:06;16.50;99.90
19342;DHT22;9807;48.258;12.690;2022-10-16T00:22:33;16.50;99.90
19342;DHT22;9807;48.258;12.690;2022-10-16T00:24:58;16.50;99.90
19342;DHT22;9807;48.258;12.690;2022-10-16T00:27:24;16.50;99.90
19342;DHT22;9807;48.258;12.690;2022-10-16T00:29:51;16.40;99.90
19342;DHT22;9807;48.258;12.690;2022-10-16T00:32:18;16.40;99.90
19342;DHT22;9807;48.258;12.690;2022-10-16T00:34:43;16.40;99.90
19342;DHT22;9807;48.258;12.690;2022-10-16T00:37:09;16.50;99.90
19342;DHT22;9807;48.258;12.690;2022-10-16T00:39:35;16.50;99.90
19342;DHT22;9807;48.258;12.690;2022-10-16T00:42:00;16.50;99.90
19342;DHT22;9807;48.258;12.690;2022-10-16T00:44:48;16.50;99.90
19342;DHT22;9807;48.258;12.690;2022-10-16T00:47:26;16.50;99.90
19342;DHT22;9807;48.258;12.690;2022-10-16T00:49:58;16.50;99.90
19342;DHT22;9807;48.258;12.690;2022-10-16T00:52:25;16.50;99.90
19342;DHT22;9807;48.258;12.690;2022-10-16T00:54:52;16.40;99.90
19342;DHT22;9807;48.258;12.690;2022-10-16T00:57:18;16.30;99.90
19342;DHT22;9807;48.258;12.690;2022-10-16T00:59:45;16.00;99.90
19342;DHT22;9807;48.258;12.690;2022-10-16T01:02:13;15.70;99.90
19342;DHT22;9807;48.258;12.690;2022-10-16T01:04:49;15.70;99.90
19342;DHT22;9807;48.258;12.690;2022-10-16T01:13:09;15.90;99.90
19342;DHT22;9807;48.258;12.690;2022-10-16T01:15:47;15.90;99.90
19342;DHT22;9807;48.258;12.690;2022-10-16T01:21:08;16.00;99.90
19342;DHT22;9807;48.258;12.690;2022-10-16T01:27:25;16.10;99.90
19342;DHT22;9807;48.258;12.690;2022-10-16T01:34:52;16.00;99.90
19342;DHT22;9807;48.258;12.690;2022-10-16T01:37:37;16.10;99.90
19342;DHT22;9807;48.258;12.690;2022-10-16T01:40:08;16.10;99.90
19342;DHT22;9807;48.258;12.690;2022-10-16T01:42:39;16.10;99.90
19342;DHT22;9807;48.258;12.690;2022-10-16T01:45:06;16.10;99.90
19342;DHT22;9807;48.258;12.690;2022-10-16T01:47:33;16.00;99.90
19342;DHT22;9807;48.258;12.690;2022-10-16T01:50:02;16.00;99.90
19342;DHT22;9807;48.258;12.690;2022-10-16T01:52:32;16.10;99.90
19342;DHT22;9807;48.258;12.690;2022-10-16T01:55:02;16.00;99.90
19342;DHT22;9807;48.258;12.690;2022-10-16T01:57:29;16.00;99.90
19342;DHT22;9807;48.258;12.690;2022-10-16T01:59:58;15.90;99.90
19342;DHT22;9807;48.258;12.690;2022-10-16T02:02:28;15.90;99.90
19342;DHT22;9807;48.258;12.690;2022-10-16T02:05:02;15.80;99.90
19342;DHT22;9807;48.258;12.690;2022-10-16T02:07:30;15.80;99.90
19342;DHT22;9807;48.258;12.690;2022-10-16T02:09:56;15.80;99.90
19342;DHT22;9807;48.258;12.690;2022-10-16T02:12:31;15.80;99.90
19342;DHT22;9807;48.258;12.690;2022-10-16T02:14:57;15.80;99.90
19342;DHT22;9807;48.258;12.690;2022-10-16T02:17:24;15.80;99.90
19342;DHT22;9807;48.258;12.690;2022-10-16T02:19:52;15.80;99.90
19342;DHT22;9807;48.258;12.690;2022-10-16T02:22:32;15.80;99.90
19342;DHT22;9807;48.258;12.690;2022-10-16T02:30:16;15.80;99.90
19342;DHT22;9807;48.258;12.690;2022-10-16T02:32:46;15.80;99.90
19342;DHT22;9807;48.258;12.690;2022-10-16T02:35:13;15.80;99.90
19342;DHT22;9807;48.258;12.690;2022-10-16T02:37:40;15.80;99.90
19342;DHT22;9807;48.258;12.690;2022-10-16T02:40:07;15.80;99.90
19342;DHT22;9807;48.258;12.690;2022-10-16T02:42:38;15.80;99.90
19342;DHT22;9807;48.258;12.690;2022-10-16T02:45:06;15.80;99.90
19342;DHT22;9807;48.258;12.690;2022-10-16T02:47:32;15.80;99.90
19342;DHT22;9807;48.258;12.690;2022-10-16T02:49:59;15.80;99.90
19342;DHT22;9807;48.258;12.690;2022-10-16T02:52:24;15.80;99.90
19342;DHT22;9807;48.258;12.690;2022-10-16T02:54:50;15.60;99.90
19342;DHT22;9807;48.258;12.690;2022-10-16T02:57:17;15.30;99.90
19342;DHT22;9807;48.258;12.690;2022-10-16T02:59:43;14.70;99.90
19342;DHT22;9807;48.258;12.690;2022-10-16T03:02:09;14.60;99.90
19342;DHT22;9807;48.258;12.690;2022-10-16T03:04:35;14.70;99.90
19342;DHT22;9807;48.258;12.690;2022-10-16T03:07:00;14.80;99.90
19342;DHT22;9807;48.258;12.690;2022-10-16T03:09:26;14.90;99.90
19342;DHT22;9807;48.258;12.690;2022-10-16T03:11:52;15.10;99.90
19342;DHT22;9807;48.258;12.690;2022-10-16T03:14:17;15.20;99.90
19342;DHT22;9807;48.258;12.690;2022-10-16T03:16:43;15.20;99.90
19342;DHT22;9807;48.258;12.690;2022-10-16T03:19:09;15.30;99.90
19342;DHT22;9807;48.258;12.690;2022-10-16T03:21:34;15.30;99.90
19342;DHT22;9807;48.258;12.690;2022-10-16T03:24:00;15.40;99.90
19342;DHT22;9807;48.258;12.690;2022-10-16T03:26:26;15.40;99.90
19342;DHT22;9807;48.258;12.690;2022-10-16T03:28:51;15.30;99.90
19342;DHT22;9807;48.258;12.690;2022-10-16T03:31:17;15.10;99.90
19342;DHT22;9807;48.258;12.690;2022-10-16T03:33:43;15.00;99.90
19342;DHT22;9807;48.258;12.690;2022-10-16T03:36:08;15.10;99.90
19342;DHT22;9807;48.258;12.690;2022-10-16T03:38:34;15.20;99.90
19342;DHT22;9807;48.258;12.690;2022-10-16T03:41:00;15.20;99.90
19342;DHT22;9807;48.258;12.690;2022-10-16T03:43:25;15.30;99.90
19342;DHT22;9807;48.258;12.690;2022-10-16T03:45:51;15.30;99.90
19342;DHT22;9807;48.258;12.690;2022-10-16T03:48:18;15.20;99.90
19342;DHT22;9807;48.258;12.690;2022-10-16T03:50:43;14.90;99.90
19342;DHT22;9807;48.258;12.690;2022-10-16T03:53:09;14.80;99.90
19342;DHT22;9807;48.258;12.690;2022-10-16T03:55:35;14.90;99.90
19342;DHT22;9807;48.258;12.690;2022-10-16T03:58:01;15.00;99.90
19342;DHT22;9807;48.258;12.690;2022-10-16T04:00:27;15.10;99.90
19342;DHT22;9807;48.258;12.690;2022-10-16T04:02:53;15.20;99.90
19342;DHT22;9807;48.258;12.690;2022-10-16T04:05:18;15.20;99.90
19342;DHT22;9807;48.258;12.690;2022-10-16T04:07:45;15.10;99.90
19342;DHT22;9807;48.258;12.690;2022-10-16T04:10:10;14.90;99.90
19342;DHT22;9807;48.258;12.690;2022-10-16T04:12:36;14.80;99.90
19342;DHT22;9807;48.258;12.690;2022-10-16T04:15:05;14.90;99.90
19342;DHT22;9807;48.258;12.690;2022-10-16T04:17:31;14.90;99.90
19342;DHT22;9807;48.258;12.690;2022-10-16T04:19:56;15.00;99.90
19342;DHT22;9807;48.258;12.690;2022-10-16T04:22:22;15.10;99.90
19342;DHT22;9807;48.258;12.690;2022-10-16T04:24:48;15.10;99.90
19342;DHT22;9807;48.258;12.690;2022-10-16T04:27:13;15.10;99.90
19342;DHT22;9807;48.258;12.690;2022-10-16T04:29:39;15.10;99.90
19342;DHT22;9807;48.258;12.690;2022-10-16T04:32:05;15.20;99.90
19342;DHT22;9807;48.258;12.690;2022-10-16T04:34:30;15.20;99.90
19342;DHT22;9807;48.258;12.690;2022-10-16T04:36:56;15.20;99.90
19342;DHT22;9807;48.258;12.690;2022-10-16T04:39:22;15.10;99.90
19342;DHT22;9807;48.258;12.690;2022-10-16T04:41:47;15.20;99.90
19342;DHT22;9807;48.258;12.690;2022-10-16T04:44:13;15.10;99.90
19342;DHT22;9807;48.258;12.690;2022-10-16T04:46:39;14.80;99.90
19342;DHT22;9807;48.258;12.690;2022-10-16T04:49:05;14.80;99.90
19342;DHT22;9807;48.258;12.690;2022-10-16T04:51:31;14.80;99.90
19342;DHT22;9807;48.258;12.690;2022-10-16T04:53:56;14.90;99.90
19342;DHT22;9807;48.258;12.690;2022-10-16T04:56:25;15.00;99.90
19342;DHT22;9807;48.258;12.690;2022-10-16T04:58:51;15.00;99.90
19342;DHT22;9807;48.258;12.690;2022-10-16T05:01:17;15.00;99.90
19342;DHT22;9807;48.258;12.690;2022-10-16T05:03:45;15.10;99.90
19342;DHT22;9807;48.258;12.690;2022-10-16T05:06:11;15.00;99.90
19342;DHT22;9807;48.258;12.690;2022-10-16T05:08:37;15.10;99.90
19342;DHT22;9807;48.258;12.690;2022-10-16T05:11:02;15.10;99.90
19342;DHT22;9807;48.258;12.690;2022-10-16T05:13:28;15.10;99.90
19342;DHT22;9807;48.258;12.690;2022-10-16T05:15:54;15.10;99.90
19342;DHT22;9807;48.258;12.690;2022-10-16T05:18:22;15.10;99.90
19342;DHT22;9807;48.258;12.690;2022-10-16T05:20:48;15.10;99.90
19342;DHT22;9807;48.258;12.690;2022-10-16T05:23:14;15.10;99.90
19342;DHT22;9807;48.258;12.690;2022-10-16T05:25:39;15.10;99.90
19342;DHT22;9807;48.258;12.690;2022-10-16T05:28:05;15.10;99.90
19342;DHT22;9807;48.258;12.690;2022-10-16T05:30:31;15.10;99.90
19342;DHT22;9807;48.258;12.690;2022-10-16T05:32:56;15.10;99.90
19342;DHT22;9807;48.258;12.690;2022-10-16T05:35:25;15.10;99.90
19342;DHT22;9807;48.258;12.690;2022-10-16T05:37:50;15.10;99.90
19342;DHT22;9807;48.258;12.690;2022-10-16T05:40:17;15.10;99.90
19342;DHT22;9807;48.258;12.690;2022-10-16T05:42:43;15.10;99.90
19342;DHT22;9807;48.258;12.690;2022-10-16T05:45:10;15.20;99.90
19342;DHT22;9807;48.258;12.690;2022-10-16T05:47:36;15.20;99.90
19342;DHT22;9807;48.258;12.690;2022-10-16T05:50:02;15.20;99.90
19342;DHT22;9807;48.258;12.690;2022-10-16T05:52:29;15.10;99.90
19342;DHT22;9807;48.258;12.690;2022-10-16T05:54:58;15.10;99.90
19342;DHT22;9807;48.258;12.690;2022-10-16T05:57:24;15.20;99.90
19342;DHT22;9807;48.258;12.690;2022-10-16T05:59:52;15.20;99.90
19342;DHT22;9807;48.258;12.690;2022-10-16T06:02:17;15.20;99.90
19342;DHT22;9807;48.258;12.690;2022-10-16T06:04:43;15.20;99.90
19342;DHT22;9807;48.258;12.690;2022-10-16T06:07:09;15.20;99.90
19342;DHT22;9807;48.258;12.690;2022-10-16T06:09:37;15.30;99.90
19342;DHT22;9807;48.258;12.690;2022-10-16T06:12:03;15.30;99.90
19342;DHT22;9807;48.258;12.690;2022-10-16T06:14:29;15.20;99.90
19342;DHT22;9807;48.258;12.690;2022-10-16T06:16:54;15.30;99.90
19342;DHT22;9807;48.258;12.690;2022-10-16T06:19:20;15.30;99.90
19342;DHT22;9807;48.258;12.690;2022-10-16T06:21:46;15.40;99.90
19342;DHT22;9807;48.258;12.690;2022-10-16T06:24:12;15.40;99.90
19342;DHT22;9807;48.258;12.690;2022-10-16T06:26:38;15.50;99.90
19342;DHT22;9807;48.258;12.690;2022-10-16T06:29:04;15.50;99.90
19342;DHT22;9807;48.258;12.690;2022-10-16T06:31:29;15.50;99.90
19342;DHT22;9807;48.258;12.690;2022-10-16T06:33:58;15.50;99.90
19342;DHT22;9807;48.258;12.690;2022-10-16T06:36:25;15.60;99.90
19342;DHT22;9807;48.258;12.690;2022-10-16T06:38:51;15.60;99.90
19342;DHT22;9807;48.258;12.690;2022-10-16T06:41:19;15.60;99.90
19342;DHT22;9807;48.258;12.690;2022-10-16T06:43:48;15.70;99.90
19342;DHT22;9807;48.258;12.690;2022-10-16T06:46:15;15.80;99.90
19342;DHT22;9807;48.258;12.690;2022-10-16T06:48:41;15.80;99.90
19342;DHT22;9807;48.258;12.690;2022-10-16T06:51:12;15.80;99.90
19342;DHT22;9807;48.258;12.690;2022-10-16T06:53:43;15.80;99.90
19342;DHT22;9807;48.258;12.690;2022-10-16T06:56:11;15.90;99.90
19342;DHT22;9807;48.258;12.690;2022-10-16T06:58:38;15.90;99.90
19342;DHT22;9807;48.258;12.690;2022-10-16T07:01:04;15.90;99.90
19342;DHT22;9807;48.258;12.690;2022-10-16T07:03:30;16.00;99.90
19342;DHT22;9807;48.258;12.690;2022-10-16T07:05:56;16.00;99.90
19342;DHT22;9807;48.258;12.690;2022-10-16T07:08:25;16.00;99.90
19342;DHT22;9807;48.258;12.690;2022-10-16T07:11:05;16.00;99.90
19342;DHT22;9807;48.258;12.690;2022-10-16T07:13:33;16.10;99.90
19342;DHT22;9807;48.258;12.690;2022-10-16T07:16:08;16.10;99.90
19342;DHT22;9807;48.258;12.690;2022-10-16T07:18:34;16.10;99.90
19342;DHT22;9807;48.258;12.690;2022-10-16T07:21:08;16.10;99.90
19342;DHT22;9807;48.258;12.690;2022-10-16T07:23:34;16.10;99.90
19342;DHT22;9807;48.258;12.690;2022-10-16T07:26:03;16.20;99.90
19342;DHT22;9807;48.258;12.690;2022-10-16T07:28:29;16.20;99.90
19342;DHT22;9807;48.258;12.690;2022-10-16T07:31:09;16.20;99.90
19342;DHT22;9807;48.258;12.690;2022-10-16T07:33:37;16.20;99.90
19342;DHT22;9807;48.258;12.690;2022-10-16T07:36:03;16.30;99.90
19342;DHT22;9807;48.258;12.690;2022-10-16T07:38:29;16.30;99.90
19342;DHT22;9807;48.258;12.690;2022-10-16T07:40:59;16.30;99.90
19342;DHT22;9807;48.258;12.690;2022-10-16T07:43:26;16.30;99.90
19342;DHT22;9807;48.258;12.690;2022-10-16T07:46:10;16.30;99.90
19342;DHT22;9807;48.258;12.690;2022-10-16T07:48:36;16.30;99.90
19342;DHT22;9807;48.258;12.690;2022-10-16T07:51:08;16.30;99.90
19342;DHT22;9807;48.258;12.690;2022-10-16T07:53:34;16.40;99.90
19342;DHT22;9807;48.258;12.690;2022-10-16T07:56:05;16.40;99.90
19342;DHT22;9807;48.258;12.690;2022-10-16T07:58:31;16.40;99.90
19342;DHT22;9807;48.258;12.690;2022-10-16T08:00:58;16.40;99.90
19342;DHT22;9807;48.258;12.690;2022-10-16T08:03:24;16.50;99.90
19342;DHT22;9807;48.258;12.690;2022-10-16T08:05:53;16.50;99.90
19342;DHT22;9807;48.258;12.690;2022-10-16T08:08:23;16.50;99.90
19342;DHT22;9807;48.258;12.690;2022-10-16T08:10:49;16.60;99.90
19342;DHT22;9807;48.258;12.690;2022-10-16T08:13:15;16.70;99.90
19342;DHT22;9807;48.258;12.690;2022-10-16T08:15:44;16.70;99.90
19342;DHT22;9807;48.258;12.690;2022-10-16T08:18:12;16.70;99.90
19342;DHT22;9807;48.258;12.690;2022-10-16T08:20:38;16.70;99.90
19342;DHT22;9807;48.258;12.690;2022-10-16T08:23:04;16.70;99.90
19342;DHT22;9807;48.258;12.690;2022-10-16T08:25:30;16.80;99.90
19342;DHT22;9807;48.258;12.690;2022-10-16T08:27:56;16.80;99.90
19342;DHT22;9807;48.258;12.690;2022-10-16T08:30:23;16.80;99.90
19342;DHT22;9807;48.258;12.690;2022-10-16T08:32:49;16.80;99.90
19342;DHT22;9807;48.258;12.690;2022-10-16T08:35:15;16.90;99.90
19342;DHT22;9807;48.258;12.690;2022-10-16T08:37:41;16.90;99.90
19342;DHT22;9807;48.258;12.690;2022-10-16T08:40:23;17.00;99.90
19342;DHT22;9807;48.258;12.690;2022-10-16T08:46:39;17.10;99.90
19342;DHT22;9807;48.258;12.690;2022-10-16T08:49:12;17.20;99.90
19342;DHT22;9807;48.258;12.690;2022-10-16T08:51:39;17.30;99.90
19342;DHT22;9807;48.258;12.690;2022-10-16T08:56:47;17.30;99.90
19342;DHT22;9807;48.258;12.690;2022-10-16T08:59:14;17.40;99.90
19342;DHT22;9807;48.258;12.690;2022-10-16T09:01:45;17.50;99.90
19342;DHT22;9807;48.258;12.690;2022-10-16T09:04:29;17.70;99.90
19342;DHT22;9807;48.258;12.690;2022-10-16T09:06:58;17.70;99.90
19342;DHT22;9807;48.258;12.690;2022-10-16T09:10:03;17.80;99.90
19342;DHT22;9807;48.258;12.690;2022-10-16T09:12:42;17.80;99.90
19342;DHT22;9807;48.258;12.690;2022-10-16T09:18:15;17.90;99.90
19342;DHT22;9807;48.258;12.690;2022-10-16T09:20:53;18.00;99.90
19342;DHT22;9807;48.258;12.690;2022-10-16T09:23:34;18.00;99.90
19342;DHT22;9807;48.258;12.690;2022-10-16T09:26:01;18.10;99.90
19342;DHT22;9807;48.258;12.690;2022-10-16T09:28:28;18.10;99.90
19342;DHT22;9807;48.258;12.690;2022-10-16T09:30:53;18.20;99.90
19342;DHT22;9807;48.258;12.690;2022-10-16T09:33:27;18.30;99.90
19342;DHT22;9807;48.258;12.690;2022-10-16T09:35:55;18.40;99.90
19342;DHT22;9807;48.258;12.690;2022-10-16T09:38:30;18.50;99.90
19342;DHT22;9807;48.258;12.690;2022-10-16T09:40:58;18.50;99.90
19342;DHT22;9807;48.258;12.690;2022-10-16T09:43:36;18.50;99.90
19342;DHT22;9807;48.258;12.690;2022-10-16T09:46:21;18.60;99.90
19342;DHT22;9807;48.258;12.690;2022-10-16T09:48:49;18.70;99.90
19342;DHT22;9807;48.258;12.690;2022-10-16T09:51:24;18.70;99.90
19342;DHT22;9807;48.258;12.690;2022-10-16T09:53:55;18.70;99.90
19342;DHT22;9807;48.258;12.690;2022-10-16T09:56:27;18.80;99.90
19342;DHT22;9807;48.258;12.690;2022-10-16T09:58:55;18.90;99.90
19342;DHT22;9807;48.258;12.690;2022-10-16T10:02:10;18.90;99.90
19342;DHT22;9807;48.258;12.690;2022-10-16T10:04:09;18.90;99.90
19342;DHT22;9807;48.258;12.690;2022-10-16T10:06:37;19.00;99.90
19342;DHT22;9807;48.258;12.690;2022-10-16T10:09:27;19.10;99.90
19342;DHT22;9807;48.258;12.690;2022-10-16T10:11:58;19.20;99.90
19342;DHT22;9807;48.258;12.690;2022-10-16T10:14:34;19.20;99.90
19342;DHT22;9807;48.258;12.690;2022-10-16T10:19:41;19.40;99.90
19342;DHT22;9807;48.258;12.690;2022-10-16T10:24:45;19.50;99.90
19342;DHT22;9807;48.258;12.690;2022-10-16T10:28:10;19.60;99.90
19342;DHT22;9807;48.258;12.690;2022-10-16T10:30:27;19.60;99.90
19342;DHT22;9807;48.258;12.690;2022-10-16T10:33:16;19.70;99.90
19342;DHT22;9807;48.258;12.690;2022-10-16T10:35:45;19.70;99.90
19342;DHT22;9807;48.258;12.690;2022-10-16T10:38:47;19.80;99.90
19342;DHT22;9807;48.258;12.690;2022-10-16T10:46:42;19.90;99.90
19342;DHT22;9807;48.258;12.690;2022-10-16T10:49:16;20.00;99.90
19342;DHT22;9807;48.258;12.690;2022-10-16T10:57:30;20.10;99.90
19342;DHT22;9807;48.258;12.690;2022-10-16T11:00:30;20.20;99.90
19342;DHT22;9807;48.258;12.690;2022-10-16T11:08:18;20.50;99.90
19342;DHT22;9807;48.258;12.690;2022-10-16T11:14:15;20.60;99.90
19342;DHT22;9807;48.258;12.690;2022-10-16T11:16:52;20.70;99.90
19342;DHT22;9807;48.258;12.690;2022-10-16T11:19:36;20.70;99.90
19342;DHT22;9807;48.258;12.690;2022-10-16T11:22:27;20.70;99.90
19342;DHT22;9807;48.258;12.690;2022-10-16T11:27:56;20.90;99.90
19342;DHT22;9807;48.258;12.690;2022-10-16T11:30:27;20.90;99.90
19342;DHT22;9807;48.258;12.690;2022-10-16T11:35:34;21.10;99.90
19342;DHT22;9807;48.258;12.690;2022-10-16T11:38:04;21.20;99.90
19342;DHT22;9807;48.258;12.690;2022-10-16T11:40:38;21.30;99.90
19342;DHT22;9807;48.258;12.690;2022-10-16T11:45:49;21.30;99.90
19342;DHT22;9807;48.258;12.690;2022-10-16T11:48:22;21.30;99.90
19342;DHT22;9807;48.258;12.690;2022-10-16T11:50:59;21.30;99.90
19342;DHT22;9807;48.258;12.690;2022-10-16T11:53:44;21.30;99.90
19342;DHT22;9807;48.258;12.690;2022-10-16T11:56:18;21.50;99.90
19342;DHT22;9807;48.258;12.690;2022-10-16T11:59:01;21.80;99.90
19342;DHT22;9807;48.258;12.690;2022-10-16T12:04:22;22.00;99.90
19342;DHT22;9807;48.258;12.690;2022-10-16T12:07:07;22.10;99.90
19342;DHT22;9807;48.258;12.690;2022-10-16T12:09:37;22.10;99.90
19342;DHT22;9807;48.258;12.690;2022-10-16T12:12:04;22.10;99.90
19342;DHT22;9807;48.258;12.690;2022-10-16T12:14:37;22.00;99.90
19342;DHT22;9807;48.258;12.690;2022-10-16T12:17:27;21.90;99.90
19342;DHT22;9807;48.258;12.690;2022-10-16T12:20:01;21.90;99.90
19342;DHT22;9807;48.258;12.690;2022-10-16T12:22:29;21.90;99.90
19342;DHT22;9807;48.258;12.690;2022-10-16T12:24:56;21.90;99.90
19342;DHT22;9807;48.258;12.690;2022-10-16T12:27:29;21.90;99.90
19342;DHT22;9807;48.258;12.690;2022-10-16T12:30:05;21.90;99.90
19342;DHT22;9807;48.258;12.690;2022-10-16T12:32:34;22.00;99.90
19342;DHT22;9807;48.258;12.690;2022-10-16T12:35:02;22.10;99.90
19342;DHT22;9807;48.258;12.690;2022-10-16T12:37:36;22.00;99.90
19342;DHT22;9807;48.258;12.690;2022-10-16T12:40:27;22.00;99.90
19342;DHT22;9807;48.258;12.690;2022-10-16T12:42:53;22.10;99.90
19342;DHT22;9807;48.258;12.690;2022-10-16T12:45:29;22.10;99.90
19342;DHT22;9807;48.258;12.690;2022-10-16T12:47:57;22.20;99.90
19342;DHT22;9807;48.258;12.690;2022-10-16T12:50:37;22.20;99.90
19342;DHT22;9807;48.258;12.690;2022-10-16T12:53:17;22.20;99.90
19342;DHT22;9807;48.258;12.690;2022-10-16T12:56:34;22.40;99.90
19342;DHT22;9807;48.258;12.690;2022-10-16T13:07:53;22.30;99.90
19342;DHT22;9807;48.258;12.690;2022-10-16T13:13:57;22.60;99.90
19342;DHT22;9807;48.258;12.690;2022-10-16T13:16:35;22.70;99.90
19342;DHT22;9807;48.258;12.690;2022-10-16T13:30:01;23.00;99.90
19342;DHT22;9807;48.258;12.690;2022-10-16T13:32:29;23.10;99.90
19342;DHT22;9807;48.258;12.690;2022-10-16T13:34:56;23.20;99.90
19342;DHT22;9807;48.258;12.690;2022-10-16T13:37:24;23.20;99.90
19342;DHT22;9807;48.258;12.690;2022-10-16T13:39:50;23.40;99.90
19342;DHT22;9807;48.258;12.690;2022-10-16T13:42:26;23.40;99.90
19342;DHT22;9807;48.258;12.690;2022-10-16T13:44:54;23.40;99.90
19342;DHT22;9807;48.258;12.690;2022-10-16T13:47:28;23.30;99.90
19342;DHT22;9807;48.258;12.690;2022-10-16T13:52:26;23.10;99.90
19342;DHT22;9807;48.258;12.690;2022-10-16T13:54:51;23.00;99.90
19342;DHT22;9807;48.258;12.690;2022-10-16T13:57:17;23.00;99.90
19342;DHT22;9807;48.258;12.690;2022-10-16T13:59:44;23.10;99.90
19342;DHT22;9807;48.258;12.690;2022-10-16T14:02:30;23.10;99.90
19342;DHT22;9807;48.258;12.690;2022-10-16T14:04:57;23.10;99.90
19342;DHT22;9807;48.258;12.690;2022-10-16T14:07:26;23.20;99.90
19342;DHT22;9807;48.258;12.690;2022-10-16T14:09:53;23.30;99.90
19342;DHT22;9807;48.258;12.690;2022-10-16T14:12:23;23.40;99.90
19342;DHT22;9807;48.258;12.690;2022-10-16T14:14:51;23.40;99.90
19342;DHT22;9807;48.258;12.690;2022-10-16T14:17:28;23.30;99.90
19342;DHT22;9807;48.258;12.690;2022-10-16T14:19:57;23.30;99.90
19342;DHT22;9807;48.258;12.690;2022-10-16T14:22:28;23.20;99.90
19342;DHT22;9807;48.258;12.690;2022-10-16T14:24:55;23.20;99.90
19342;DHT22;9807;48.258;12.690;2022-10-16T14:27:30;23.10;99.90
19342;DHT22;9807;48.258;12.690;2022-10-16T14:30:25;23.10;99.90
19342;DHT22;9807;48.258;12.690;2022-10-16T14:33:05;23.10;99.90
19342;DHT22;9807;48.258;12.690;2022-10-16T14:35:38;23.10;99.90
19342;DHT22;9807;48.258;12.690;2022-10-16T14:38:06;23.20;99.90
19342;DHT22;9807;48.258;12.690;2022-10-16T14:40:47;23.30;99.90
19342;DHT22;9807;48.258;12.690;2022-10-16T14:43:30;23.30;99.90
19342;DHT22;9807;48.258;12.690;2022-10-16T14:45:57;23.20;99.90
19342;DHT22;9807;48.258;12.690;2022-10-16T14:48:23;23.20;99.90
19342;DHT22;9807;48.258;12.690;2022-10-16T14:50:49;23.20;99.90
19342;DHT22;9807;48.258;12.690;2022-10-16T14:53:15;23.20;99.90
19342;DHT22;9807;48.258;12.690;2022-10-16T14:55:41;23.20;99.90
19342;DHT22;9807;48.258;12.690;2022-10-16T14:58:19;23.20;99.90
19342;DHT22;9807;48.258;12.690;2022-10-16T15:00:45;23.10;99.90
19342;DHT22;9807;48.258;12.690;2022-10-16T15:03:11;23.00;99.90
19342;DHT22;9807;48.258;12.690;2022-10-16T15:05:37;22.90;99.90
19342;DHT22;9807;48.258;12.690;2022-10-16T15:08:03;23.00;99.90
19342;DHT22;9807;48.258;12.690;2022-10-16T15:10:31;22.90;99.90
19342;DHT22;9807;48.258;12.690;2022-10-16T15:12:58;22.90;99.90
19342;DHT22;9807;48.258;12.690;2022-10-16T15:17:54;22.90;99.90
19342;DHT22;9807;48.258;12.690;2022-10-16T15:20:36;22.90;99.90
19342;DHT22;9807;48.258;12.690;2022-10-16T15:23:05;22.90;99.90
19342;DHT22;9807;48.258;12.690;2022-10-16T15:25:34;22.90;99.90
19342;DHT22;9807;48.258;12.690;2022-10-16T15:28:01;22.90;99.90
19342;DHT22;9807;48.258;12.690;2022-10-16T15:30:28;22.90;99.90
19342;DHT22;9807;48.258;12.690;2022-10-16T15:32:57;22.90;99.90
19342;DHT22;9807;48.258;12.690;2022-10-16T15:35:22;22.90;99.90
19342;DHT22;9807;48.258;12.690;2022-10-16T15:37:48;22.80;99.90
19342;DHT22;9807;48.258;12.690;2022-10-16T15:40:15;22.80;99.90
19342;DHT22;9807;48.258;12.690;2022-10-16T15:42:41;22.80;99.90
19342;DHT22;9807;48.258;12.690;2022-10-16T15:45:07;22.70;99.90
19342;DHT22;9807;48.258;12.690;2022-10-16T15:47:34;22.70;99.90
19342;DHT22;9807;48.258;12.690;2022-10-16T15:49:59;22.70;99.90
19342;DHT22;9807;48.258;12.690;2022-10-16T15:52:25;22.70;99.90
19342;DHT22;9807;48.258;12.690;2022-10-16T15:54:51;22.60;99.90
19342;DHT22;9807;48.258;12.690;2022-10-16T15:57:17;22.60;99.90
19342;DHT22;9807;48.258;12.690;2022-10-16T15:59:42;22.50;99.90
19342;DHT22;9807;48.258;12.690;2022-10-16T16:02:09;22.50;99.90
19342;DHT22;9807;48.258;12.690;2022-10-16T16:04:34;22.40;99.90
19342;DHT22;9807;48.258;12.690;2022-10-16T16:07:00;22.40;99.90
19342;DHT22;9807;48.258;12.690;2022-10-16T16:09:28;22.30;99.90
19342;DHT22;9807;48.258;12.690;2022-10-16T16:11:54;22.30;99.90
19342;DHT22;9807;48.258;12.690;2022-10-16T16:14:22;22.20;99.90
19342;DHT22;9807;48.258;12.690;2022-10-16T16:16:49;22.20;99.90
19342;DHT22;9807;48.258;12.690;2022-10-16T16:19:15;22.10;99.90
19342;DHT22;9807;48.258;12.690;2022-10-16T16:21:43;22.00;99.90
19342;DHT22;9807;48.258;12.690;2022-10-16T16:24:09;21.90;99.90
19342;DHT22;9807;48.258;12.690;2022-10-16T16:26:35;21.90;99.90
19342;DHT22;9807;48.258;12.690;2022-10-16T16:29:03;21.80;99.90
19342;DHT22;9807;48.258;12.690;2022-10-16T16:31:31;21.70;99.90
19342;DHT22;9807;48.258;12.690;2022-10-16T16:33:57;21.70;99.90
19342;DHT22;9807;48.258;12.690;2022-10-16T16:36:24;21.60;99.90
19342;DHT22;9807;48.258;12.690;2022-10-16T16:38:50;21.50;99.90
19342;DHT22;9807;48.258;12.690;2022-10-16T16:41:21;21.50;99.90
19342;DHT22;9807;48.258;12.690;2022-10-16T16:43:54;21.40;99.90
19342;DHT22;9807;48.258;12.690;2022-10-16T16:46:21;21.40;99.90
19342;DHT22;9807;48.258;12.690;2022-10-16T16:48:47;21.30;99.90
19342;DHT22;9807;48.258;12.690;2022-10-16T16:51:17;21.20;99.90
19342;DHT22;9807;48.258;12.690;2022-10-16T16:53:51;21.20;99.90
19342;DHT22;9807;48.258;12.690;2022-10-16T16:56:18;21.10;99.90
19342;DHT22;9807;48.258;12.690;2022-10-16T16:58:51;21.00;99.90
19342;DHT22;9807;48.258;12.690;2022-10-16T17:01:17;21.00;99.90
19342;DHT22;9807;48.258;12.690;2022-10-16T17:03:44;20.90;99.90
19342;DHT22;9807;48.258;12.690;2022-10-16T17:06:10;20.90;99.90
19342;DHT22;9807;48.258;12.690;2022-10-16T17:08:36;20.80;99.90
19342;DHT22;9807;48.258;12.690;2022-10-16T17:11:12;20.70;99.90
19342;DHT22;9807;48.258;12.690;2022-10-16T17:13:44;20.70;99.90
19342;DHT22;9807;48.258;12.690;2022-10-16T17:16:10;20.60;99.90
19342;DHT22;9807;48.258;12.690;2022-10-16T17:18:36;20.60;99.90
19342;DHT22;9807;48.258;12.690;2022-10-16T17:21:04;20.50;99.90